Time;durP1;ratioP1;P1;durP2;ratioP2;P2;SDS_P1;SDS_P2;PMS_P1;PMS_P2;Temp;Humidity;BMP_temperature;BMP_pressure;BME280_temperature;BME280_humidity;BME280_pressure;Samples;Min_cycle;Max_cycle;Signal;HPM_P1;HPM_P2
2023/07/11 00:01:55;;;;;;;5.43;4.93;;;;;;;20.63;72.59;95076.75;5107749;28;20189;-43
2023/07/11 00:04:22;;;;;;;5.35;4.85;;;;;;;20.62;72.89;95075.13;5092699;28;20247;-43
2023/07/11 00:06:52;;;;;;;7.18;5.22;;;;;;;20.61;72.89;95080.53;5092329;28;20190;-44
2023/07/11 00:09:19;;;;;;;5.40;4.90;;;;;;;20.58;73.07;95076.50;5096649;28;20193;-43
2023/07/11 00:11:46;;;;;;;5.60;5.05;;;;;;;20.53;73.38;95081.47;5112488;28;20233;-45
2023/07/11 00:14:14;;;;;;;5.25;4.82;;;;;;;20.46;73.60;95080.59;5112978;28;20292;-45
2023/07/11 00:16:41;;;;;;;5.28;4.78;;;;;;;20.52;73.85;95092.88;5112672;28;20572;-43
2023/07/11 00:19:08;;;;;;;5.97;5.38;;;;;;;20.52;73.75;95095.47;5113181;28;20293;-44
2023/07/11 00:21:35;;;;;;;5.20;4.80;;;;;;;20.49;73.59;95088.03;5112467;28;20308;-43
2023/07/11 00:24:04;;;;;;;8.57;5.22;;;;;;;20.48;73.58;95095.03;5111817;28;20189;-43
2023/07/11 00:26:31;;;;;;;5.55;5.05;;;;;;;20.45;73.60;95084.97;5112445;28;20227;-44
2023/07/11 00:29:01;;;;;;;7.30;5.22;;;;;;;20.39;73.67;95079.75;5112468;28;20267;-44
2023/07/11 00:31:29;;;;;;;7.13;5.00;;;;;;;20.27;73.48;95056.88;5092677;28;20204;-44
2023/07/11 00:33:56;;;;;;;5.82;5.13;;;;;;;20.37;73.23;95073.94;5092106;28;20194;-44
2023/07/11 00:36:23;;;;;;;5.95;4.95;;;;;;;20.37;73.12;95086.91;5092073;28;20303;-43
2023/07/11 00:38:50;;;;;;;5.72;4.65;;;;;;;20.33;72.90;95081.28;5091996;28;20648;-43
2023/07/11 00:41:18;;;;;;;6.60;4.67;;;;;;;20.30;72.54;95069.50;5092154;28;20189;-44
2023/07/11 00:43:45;;;;;;;6.20;5.05;;;;;;;20.27;72.44;95069.88;5091905;28;20193;-44
2023/07/11 00:46:15;;;;;;;5.20;4.68;;;;;;;20.25;72.92;95068.44;5091756;28;20626;-44
2023/07/11 00:48:48;;;;;;;5.05;4.60;;;;;;;20.25;72.64;95063.25;5091545;28;20190;-44
2023/07/11 00:51:21;;;;;;;5.50;4.60;;;;;;;20.22;72.58;95059.25;5092218;28;20186;-44
2023/07/11 00:53:48;;;;;;;6.13;5.28;;;;;;;20.16;72.47;95048.78;5091756;28;20204;-46
2023/07/11 00:56:18;;;;;;;6.80;4.90;;;;;;;20.07;72.45;95034.34;5091832;28;20239;-44
2023/07/11 00:58:46;;;;;;;5.50;4.85;;;;;;;20.16;72.91;95054.78;5091406;28;20576;-43
2023/07/11 01:01:15;;;;;;;5.57;4.70;;;;;;;20.12;73.27;95055.34;5091864;28;20186;-45
2023/07/11 01:03:44;;;;;;;5.60;5.07;;;;;;;20.10;73.16;95057.34;5091879;28;20266;-45
2023/07/11 01:06:13;;;;;;;6.20;4.97;;;;;;;20.08;73.52;95056.72;5091781;28;20190;-44
2023/07/11 01:08:40;;;;;;;8.05;4.60;;;;;;;20.05;73.73;95060.50;5094396;28;20244;-44
2023/07/11 01:11:07;;;;;;;5.47;4.60;;;;;;;20.01;73.81;95059.28;5111751;28;20197;-45
2023/07/11 01:13:34;;;;;;;6.85;4.90;;;;;;;19.92;74.16;95052.59;5111411;28;20244;-44
2023/07/11 01:16:01;;;;;;;5.60;5.05;;;;;;;19.92;74.50;95050.81;5105264;28;20186;-43
2023/07/11 01:18:28;;;;;;;9.20;4.72;;;;;;;19.96;74.37;95059.03;5101040;28;20216;-44
2023/07/11 01:20:57;;;;;;;6.53;5.03;;;;;;;19.88;74.68;95052.16;5111711;28;20197;-43
2023/07/11 01:23:26;;;;;;;5.97;4.35;;;;;;;19.80;74.48;95045.31;5103595;28;20197;-43
2023/07/11 01:26:00;;;;;;;5.22;4.72;;;;;;;19.85;74.51;95052.53;5090946;28;20495;-44
2023/07/11 01:28:27;;;;;;;4.25;3.92;;;;;;;19.89;73.80;95055.56;5098939;28;20265;-43
2023/07/11 01:30:54;;;;;;;4.70;4.30;;;;;;;19.89;73.30;95047.78;5111096;28;20269;-44
2023/07/11 01:33:24;;;;;;;5.33;4.83;;;;;;;19.88;73.21;95061.75;5111062;28;20200;-42
2023/07/11 01:35:52;;;;;;;5.00;4.50;;;;;;;19.83;73.61;95058.91;5111207;28;20211;-42
2023/07/11 01:38:19;;;;;;;5.22;4.72;;;;;;;19.80;74.03;95060.06;5110277;28;20691;-42
2023/07/11 01:40:47;;;;;;;5.30;4.80;;;;;;;19.79;74.20;95051.50;5111044;28;20208;-42
2023/07/11 01:43:15;;;;;;;5.43;4.85;;;;;;;19.76;74.58;95056.25;5111042;28;20189;-43
2023/07/11 01:45:41;;;;;;;5.78;5.10;;;;;;;19.73;74.79;95051.41;5110988;28;20185;-44
2023/07/11 01:48:08;;;;;;;5.85;4.70;;;;;;;19.72;75.37;95052.41;5110792;28;20246;-42
2023/07/11 01:50:35;;;;;;;9.93;5.40;;;;;;;19.63;75.99;95038.75;5110897;28;20197;-43
2023/07/11 01:53:02;;;;;;;6.07;5.47;;;;;;;19.63;76.62;95041.34;5110630;28;20312;-43
2023/07/11 01:55:29;;;;;;;5.63;5.00;;;;;;;19.62;76.65;95044.13;5111015;28;20197;-43
2023/07/11 01:57:57;;;;;;;5.63;5.13;;;;;;;19.59;77.12;95047.88;5111018;28;20657;-43
2023/07/11 02:00:24;;;;;;;6.47;5.28;;;;;;;19.58;77.59;95042.88;5110473;28;20200;-43
2023/07/11 02:02:51;;;;;;;5.73;5.13;;;;;;;19.55;77.96;95038.84;5110179;28;20193;-43
2023/07/11 02:05:18;;;;;;;12.20;5.97;;;;;;;19.36;78.61;95008.31;5110306;28;20540;-42
2023/07/11 02:07:44;;;;;;;7.77;6.53;;;;;;;19.48;80.08;95030.19;5101900;28;20204;-43
2023/07/11 02:10:11;;;;;;;10.13;6.77;;;;;;;19.50;80.31;95041.97;5089874;28;20657;-43
2023/07/11 02:12:38;;;;;;;6.77;6.07;;;;;;;19.53;81.10;95039.03;5090297;28;20188;-42
2023/07/11 02:15:07;;;;;;;8.52;6.88;;;;;;;19.55;82.59;95038.84;5090650;28;20181;-45
2023/07/11 02:17:35;;;;;;;8.57;7.07;;;;;;;19.54;83.07;95051.00;5100088;28;20713;-42
2023/07/11 02:20:02;;;;;;;8.70;6.63;;;;;;;19.47;82.03;95055.34;5110379;28;20204;-44
2023/07/11 02:22:28;;;;;;;8.53;6.53;;;;;;;19.41;81.99;95044.88;5110169;28;20184;-43
2023/07/11 02:24:55;;;;;;;8.23;6.77;;;;;;;19.40;82.47;95051.06;5110381;28;20570;-43
2023/07/11 02:27:22;;;;;;;11.57;6.80;;;;;;;19.34;82.60;95049.19;5101527;28;20186;-41
2023/07/11 02:29:49;;;;;;;8.63;7.00;;;;;;;19.35;83.45;95043.03;5089839;28;20294;-44
2023/07/11 02:32:17;;;;;;;13.23;7.03;;;;;;;19.37;84.00;95046.25;5089662;28;20186;-44
2023/07/11 02:34:43;;;;;;;8.37;6.40;;;;;;;19.35;84.08;95048.22;5089847;28;20641;-45
2023/07/11 02:37:10;;;;;;;9.83;7.43;;;;;;;19.28;84.66;95048.13;5089530;28;20194;-44
2023/07/11 02:39:37;;;;;;;10.57;7.63;;;;;;;19.24;85.12;95047.69;5090246;28;20190;-44
2023/07/11 02:42:04;;;;;;;9.43;6.90;;;;;;;19.23;85.24;95045.28;5089344;28;20185;-44
2023/07/11 02:44:31;;;;;;;8.63;6.77;;;;;;;19.25;85.69;95048.50;5090002;28;20185;-43
2023/07/11 02:46:58;;;;;;;10.07;6.77;;;;;;;19.27;85.71;95043.94;5089388;28;20569;-43
2023/07/11 02:49:26;;;;;;;8.03;6.57;;;;;;;19.22;85.75;95034.13;5089936;28;20197;-44
2023/07/11 02:51:53;;;;;;;9.67;7.37;;;;;;;19.25;85.61;95036.31;5089830;28;20212;-43
2023/07/11 02:54:19;;;;;;;9.10;6.63;;;;;;;19.15;86.35;95027.25;5089515;28;20200;-44
2023/07/11 02:56:46;;;;;;;10.97;7.17;;;;;;;19.15;86.05;95035.81;5089614;28;20186;-44
2023/07/11 02:59:13;;;;;;;8.50;6.80;;;;;;;19.10;86.68;95042.53;5090236;28;20213;-42
2023/07/11 03:01:39;;;;;;;8.20;7.40;;;;;;;19.09;86.75;95041.75;5098396;28;20242;-44
2023/07/11 03:04:06;;;;;;;8.90;6.50;;;;;;;19.10;86.57;95042.53;5101762;28;20186;-43
2023/07/11 03:06:34;;;;;;;8.57;7.17;;;;;;;19.13;86.36;95036.97;5089451;28;20186;-42
2023/07/11 03:09:01;;;;;;;10.97;7.17;;;;;;;18.95;86.09;95014.03;5089450;28;20221;-42
2023/07/11 03:11:28;;;;;;;7.33;6.63;;;;;;;19.16;86.30;95042.59;5105925;28;20177;-43
2023/07/11 03:13:55;;;;;;;7.70;6.63;;;;;;;19.13;86.15;95036.97;5112048;28;20181;-43
2023/07/11 03:16:21;;;;;;;7.00;6.30;;;;;;;19.12;86.33;95037.97;5113977;28;20568;-43
2023/07/11 03:18:48;;;;;;;8.77;7.37;;;;;;;19.20;86.32;95051.63;5113185;28;20227;-42
2023/07/11 03:21:15;;;;;;;8.60;6.93;;;;;;;19.24;86.25;95052.88;5113957;28;20576;-45
2023/07/11 03:23:43;;;;;;;9.50;7.73;;;;;;;19.29;86.77;95049.75;5113999;28;20204;-44
2023/07/11 03:26:10;;;;;;;8.87;7.43;;;;;;;19.30;86.58;95046.97;5113150;28;20189;-43
2023/07/11 03:28:37;;;;;;;10.40;7.43;;;;;;;19.30;86.35;95053.97;5113553;28;20225;-44
2023/07/11 03:31:03;;;;;;;11.73;8.37;;;;;;;19.33;86.45;95056.16;5113478;28;20185;-43
2023/07/11 03:33:30;;;;;;;11.73;8.37;;;;;;;19.18;85.82;95032.06;5102743;28;20654;-43
2023/07/11 03:35:57;;;;;;;7.80;7.07;;;;;;;19.39;85.67;95057.25;5093553;28;20182;-42
2023/07/11 03:38:24;;;;;;;13.27;7.43;;;;;;;19.43;85.40;95055.88;5093303;28;20256;-43
2023/07/11 03:40:52;;;;;;;11.87;7.90;;;;;;;19.51;85.73;95061.75;5093058;28;20190;-43
2023/07/11 03:43:19;;;;;;;9.17;7.47;;;;;;;19.53;85.52;95064.19;5093430;28;20248;-43
2023/07/11 03:45:47;;;;;;;12.57;7.50;;;;;;;19.44;85.15;95047.13;5092930;28;20182;-43
2023/07/11 03:48:15;;;;;;;9.20;7.77;;;;;;;19.52;84.91;95059.97;5093139;28;20186;-43
2023/07/11 03:50:42;;;;;;;12.80;8.75;;;;;;;19.51;84.96;95045.38;5092800;28;20860;-48
2023/07/11 03:53:09;;;;;;;8.98;8.02;;;;;;;19.52;85.18;95047.81;5093160;28;20186;-44
2023/07/11 03:55:36;;;;;;;10.80;7.80;;;;;;;19.54;85.29;95048.41;5074190;28;20649;-45
2023/07/11 03:58:04;;;;;;;8.97;7.73;;;;;;;19.64;84.98;95048.13;5092757;28;20202;-43
2023/07/11 04:00:31;;;;;;;9.13;8.13;;;;;;;19.75;84.73;95047.66;5093096;28;20200;-43
2023/07/11 04:02:58;;;;;;;11.88;7.80;;;;;;;19.80;83.73;95047.91;5102713;28;20196;-45
2023/07/11 04:05:24;;;;;;;13.75;8.00;;;;;;;19.81;82.99;95051.28;5112803;28;20230;-44
2023/07/11 04:07:51;;;;;;;11.85;7.82;;;;;;;19.71;82.73;95028.25;5112783;28;20576;-42
2023/07/11 04:10:18;;;;;;;8.63;7.73;;;;;;;19.87;81.84;95040.19;5110694;28;20274;-42
2023/07/11 04:12:45;;;;;;;8.30;7.47;;;;;;;19.89;81.25;95043.38;5092527;28;20289;-44
2023/07/11 04:15:14;;;;;;;8.97;7.30;;;;;;;19.76;81.28;95009.53;5092490;28;20200;-43
2023/07/11 04:17:41;;;;;;;13.23;7.50;;;;;;;20.02;81.12;95060.88;5102336;28;20185;-43
2023/07/11 04:20:09;;;;;;;11.57;7.87;;;;;;;20.02;81.04;95059.06;5113019;28;20208;-43
2023/07/11 04:22:37;;;;;;;13.03;8.77;;;;;;;20.10;81.16;95075.53;5112400;28;20660;-43
2023/07/11 04:25:04;;;;;;;14.37;8.90;;;;;;;20.19;80.96;95069.19;5111982;28;20185;-43
2023/07/11 04:27:31;;;;;;;13.68;7.97;;;;;;;20.10;80.57;95037.38;5112547;28;20307;-43
2023/07/11 04:29:57;;;;;;;15.80;8.27;;;;;;;20.35;80.32;95075.94;5112623;28;20220;-45
2023/07/11 04:32:26;;;;;;;9.23;7.70;;;;;;;20.40;79.98;95076.16;5092508;28;20205;-45
2023/07/11 04:34:54;;;;;;;18.80;8.23;;;;;;;20.41;79.58;95082.94;5092108;28;20197;-43
2023/07/11 04:37:20;;;;;;;11.68;8.05;;;;;;;20.46;79.18;95086.59;5093584;28;20193;-43
2023/07/11 04:39:47;;;;;;;13.00;8.43;;;;;;;20.52;78.72;95085.88;5112076;28;20304;-43
2023/07/11 04:42:14;;;;;;;13.57;7.53;;;;;;;20.52;78.80;95082.47;5096308;28;20602;-44
2023/07/11 04:44:41;;;;;;;11.85;7.93;;;;;;;20.61;78.60;95083.94;5112234;28;20281;-43
2023/07/11 04:47:08;;;;;;;11.18;8.48;;;;;;;20.71;78.23;95081.00;5112257;28;20200;-44
2023/07/11 04:49:36;;;;;;;10.70;8.13;;;;;;;20.83;77.97;95084.66;5110511;28;20205;-43
2023/07/11 04:52:03;;;;;;;8.23;7.43;;;;;;;20.93;77.61;95092.13;5096199;28;20584;-44
2023/07/11 04:54:29;;;;;;;12.77;8.32;;;;;;;21.04;77.14;95088.97;5111591;28;20193;-44
2023/07/11 04:56:58;;;;;;;17.65;8.70;;;;;;;21.08;76.80;95085.00;5111913;28;20653;-44
2023/07/11 04:59:25;;;;;;;12.18;8.82;;;;;;;21.13;76.47;95084.44;5112105;28;20209;-43
2023/07/11 05:01:51;;;;;;;12.15;8.38;;;;;;;21.12;76.68;95080.22;5112310;28;20656;-45
2023/07/11 05:04:19;;;;;;;9.70;8.48;;;;;;;21.17;76.07;95089.03;5091721;28;20613;-45
2023/07/11 05:06:48;;;;;;;13.18;7.78;;;;;;;21.25;75.11;95088.09;5091370;28;20193;-46
2023/07/11 05:09:15;;;;;;;10.55;8.02;;;;;;;21.29;75.32;95084.91;5091278;28;20218;-45
2023/07/11 05:11:43;;;;;;;9.57;7.78;;;;;;;21.28;74.52;95080.66;5091612;28;20574;-43
2023/07/11 05:14:10;;;;;;;10.77;8.52;;;;;;;21.40;74.07;95087.97;5091848;28;20217;-44
2023/07/11 05:16:37;;;;;;;10.82;7.80;;;;;;;21.54;73.72;95100.00;5091219;28;20730;-44
2023/07/11 05:19:04;;;;;;;15.88;8.82;;;;;;;21.81;73.10;95093.09;5091401;28;20225;-46
2023/07/11 05:21:31;;;;;;;13.82;7.97;;;;;;;21.92;72.18;95069.06;5090960;28;20703;-43
2023/07/11 05:24:01;;;;;;;14.70;8.45;;;;;;;22.42;71.31;95094.78;5090968;28;20205;-44
2023/07/11 05:26:29;;;;;;;14.93;8.43;;;;;;;22.58;69.99;95081.31;5091138;28;20295;-44
2023/07/11 05:28:55;;;;;;;10.05;7.68;;;;;;;22.95;69.01;95094.72;5091118;28;20715;-43
2023/07/11 05:31:22;;;;;;;11.20;8.05;;;;;;;23.31;67.74;95094.22;5090729;28;20190;-42
2023/07/11 05:33:51;;;;;;;10.30;7.50;;;;;;;23.64;66.76;95090.66;5091059;28;20190;-44
2023/07/11 05:36:32;;;;;;;11.38;7.20;;;;;;;23.90;65.06;95087.94;5090217;28;20294;-44
2023/07/11 05:39:03;;;;;;;9.25;7.15;;;;;;;24.12;64.40;95101.44;5091288;28;20225;-45
2023/07/11 05:41:30;;;;;;;9.85;7.50;;;;;;;24.22;63.84;95099.19;5109528;28;20189;-45
2023/07/11 05:43:57;;;;;;;8.93;8.02;;;;;;;24.27;63.62;95101.16;5091188;28;20212;-44
2023/07/11 05:46:24;;;;;;;14.35;8.23;;;;;;;24.46;63.48;95099.41;5090101;28;20419;-45
2023/07/11 05:48:52;;;;;;;15.80;6.93;;;;;;;24.59;62.71;95094.06;5088230;28;20201;-44
2023/07/11 05:51:19;;;;;;;11.18;7.63;;;;;;;24.67;62.00;95099.03;5088978;28;20534;-45
2023/07/11 05:53:46;;;;;;;11.60;6.40;;;;;;;24.77;61.96;95103.78;5088522;28;20268;-45
2023/07/11 05:56:15;;;;;;;10.48;7.15;;;;;;;24.92;61.56;95095.59;5098771;28;20189;-46
2023/07/11 05:58:43;;;;;;;19.48;7.85;;;;;;;24.95;61.42;95088.09;5089958;28;20198;-43
2023/07/11 06:01:11;;;;;;;13.82;7.05;;;;;;;25.08;61.17;95088.97;5087874;28;20202;-44
2023/07/11 06:03:40;;;;;;;10.20;7.05;;;;;;;25.52;60.39;95088.69;5088091;28;20198;-44
2023/07/11 06:06:09;;;;;;;10.85;7.45;;;;;;;25.74;59.35;95078.53;5087961;28;20188;-45
2023/07/11 06:08:36;;;;;;;11.13;7.35;;;;;;;25.96;58.45;95091.97;5087895;28;20190;-45
2023/07/11 06:11:05;;;;;;;10.52;7.63;;;;;;;26.06;58.03;95095.84;5087458;28;20797;-45
2023/07/11 06:13:35;;;;;;;13.68;8.10;;;;;;;26.13;57.36;95097.38;5087984;28;20511;-44
2023/07/11 06:16:04;;;;;;;12.27;7.97;;;;;;;26.23;58.07;95100.22;5103837;28;20270;-44
2023/07/11 06:18:34;;;;;;;18.27;8.55;;;;;;;26.70;57.14;95095.06;5108126;28;20185;-44
2023/07/11 06:21:01;;;;;;;16.23;7.55;;;;;;;27.13;55.74;95090.50;5108350;28;20197;-44
2023/07/11 06:23:28;;;;;;;17.85;7.90;;;;;;;27.31;55.41;95092.97;5107672;28;20178;-44
2023/07/11 06:25:54;;;;;;;10.27;7.75;;;;;;;27.41;54.82;95098.41;5107666;28;20708;-44
2023/07/11 06:28:21;;;;;;;12.60;8.23;;;;;;;27.48;54.32;95096.47;5107481;28;20229;-43
2023/07/11 06:30:49;;;;;;;17.52;7.90;;;;;;;27.43;54.49;95101.63;5107766;28;20246;-45
2023/07/11 06:33:17;;;;;;;17.85;8.82;;;;;;;27.37;55.10;95104.34;5104397;28;20189;-45
2023/07/11 06:35:49;;;;;;;18.75;8.55;;;;;;;27.47;54.92;95102.75;5107046;28;20205;-44
2023/07/11 06:38:16;;;;;;;11.45;7.20;;;;;;;27.47;54.42;95071.22;5107777;28;20241;-43
2023/07/11 06:40:48;;;;;;;13.23;7.53;;;;;;;27.78;53.81;95084.16;5099795;28;20242;-46
2023/07/11 06:43:14;;;;;;;13.90;8.30;;;;;;;27.96;53.57;95078.69;5105834;28;20274;-45
2023/07/11 06:45:41;;;;;;;9.60;7.70;;;;;;;27.86;53.19;95089.03;5088942;28;20280;-45
2023/07/11 06:48:09;;;;;;;13.55;7.72;;;;;;;27.78;53.41;95086.78;5102076;28;20209;-44
2023/07/11 06:50:36;;;;;;;12.60;8.07;;;;;;;27.88;53.70;95077.25;5107097;28;20192;-44
2023/07/11 06:53:03;;;;;;;14.90;8.10;;;;;;;27.95;53.72;95085.78;5107145;28;20193;-46
2023/07/11 06:55:30;;;;;;;22.67;7.40;;;;;;;27.87;53.95;95085.38;5106842;28;20204;-44
2023/07/11 06:57:56;;;;;;;22.05;9.38;;;;;;;27.90;53.62;95085.69;5103799;28;20197;-44
2023/07/11 07:00:24;;;;;;;16.13;8.52;;;;;;;27.80;53.83;95088.13;5105594;28;20224;-44
2023/07/11 07:02:51;;;;;;;11.90;8.20;;;;;;;27.91;54.45;95087.28;5106023;28;20201;-45
2023/07/11 07:05:19;;;;;;;18.58;7.97;;;;;;;27.92;53.65;95067.06;5104479;28;20261;-43
2023/07/11 07:07:46;;;;;;;10.25;7.60;;;;;;;27.97;53.26;95078.44;5106661;28;20289;-45
2023/07/11 07:10:12;;;;;;;14.70;7.03;;;;;;;28.09;53.61;95081.03;5104959;28;20684;-43
2023/07/11 07:12:39;;;;;;;12.52;7.15;;;;;;;28.43;53.00;95081.88;5106513;28;20636;-43
2023/07/11 07:15:07;;;;;;;10.48;7.55;;;;;;;28.64;51.95;95085.59;5106114;28;20702;-44
2023/07/11 07:17:34;;;;;;;14.13;7.63;;;;;;;28.67;52.18;95093.03;5103930;28;20644;-44
2023/07/11 07:20:01;;;;;;;10.82;6.38;;;;;;;29.00;52.13;95084.28;5105957;28;20646;-43
2023/07/11 07:22:29;;;;;;;12.50;6.80;;;;;;;29.35;50.79;95075.22;5103686;28;20332;-44
2023/07/11 07:24:56;;;;;;;18.30;7.28;;;;;;;29.59;50.49;95085.56;5104612;28;20235;-44
2023/07/11 07:27:22;;;;;;;9.68;7.45;;;;;;;29.66;49.75;95080.88;5101020;28;20253;-44
2023/07/11 07:29:50;;;;;;;14.10;7.43;;;;;;;29.59;50.80;95075.81;5103113;28;20225;-45
2023/07/11 07:32:16;;;;;;;10.48;6.88;;;;;;;29.58;50.28;95073.41;5105985;28;20228;-43
2023/07/11 07:34:43;;;;;;;11.23;7.60;;;;;;;29.65;50.33;95069.53;5108483;28;20185;-43
2023/07/11 07:37:10;;;;;;;11.75;6.93;;;;;;;29.62;50.41;95063.97;5108679;28;20193;-44
2023/07/11 07:39:39;;;;;;;9.05;6.25;;;;;;;29.70;51.21;95068.78;5108343;28;20225;-43
2023/07/11 07:42:06;;;;;;;21.20;6.78;;;;;;;29.83;50.39;95057.84;5107782;28;20261;-45
2023/07/11 07:44:33;;;;;;;10.68;7.00;;;;;;;30.03;50.29;95067.00;5105409;28;20186;-43
2023/07/11 07:47:00;;;;;;;17.63;6.82;;;;;;;30.06;50.70;95063.88;5107565;28;20653;-44
2023/07/11 07:49:27;;;;;;;9.40;6.40;;;;;;;30.14;50.88;95058.13;5108803;28;20376;-43
2023/07/11 07:51:54;;;;;;;10.05;6.80;;;;;;;30.43;50.04;95069.19;5105644;28;20181;-44
2023/07/11 07:54:21;;;;;;;7.70;5.65;;;;;;;30.63;49.81;95068.56;5108840;28;20224;-44
2023/07/11 07:56:49;;;;;;;13.52;6.82;;;;;;;30.91;48.03;95062.13;5105157;28;20234;-43
2023/07/11 07:59:16;;;;;;;16.95;5.70;;;;;;;30.94;46.18;95067.72;5109335;28;20262;-44
2023/07/11 08:01:43;;;;;;;6.28;4.85;;;;;;;30.86;45.29;95068.19;5108807;28;20193;-45
2023/07/11 08:04:09;;;;;;;5.57;4.95;;;;;;;30.96;44.27;95060.34;5109153;28;20189;-44
2023/07/11 08:06:36;;;;;;;8.25;4.60;;;;;;;31.23;42.36;95065.47;5112329;28;20189;-44
2023/07/11 08:09:03;;;;;;;4.85;4.40;;;;;;;31.35;42.56;95051.28;5112504;28;20192;-45
2023/07/11 08:11:30;;;;;;;7.38;4.28;;;;;;;31.54;42.23;95054.25;5108209;28;20207;-44
2023/07/11 08:13:58;;;;;;;7.13;4.65;;;;;;;31.70;41.23;95055.88;5111815;28;20579;-46
2023/07/11 08:16:25;;;;;;;6.00;4.28;;;;;;;31.79;40.08;95042.94;5112584;28;20275;-43
2023/07/11 08:18:53;;;;;;;6.15;4.55;;;;;;;31.89;40.95;95062.28;5111949;28;20621;-45
2023/07/11 08:21:20;;;;;;;7.18;4.20;;;;;;;31.93;41.03;95062.56;5111254;28;20236;-44
2023/07/11 08:23:46;;;;;;;4.88;4.47;;;;;;;31.95;40.30;95052.50;5110973;28;20234;-43
2023/07/11 08:26:13;;;;;;;6.53;4.30;;;;;;;32.05;40.18;95046.44;5108499;28;20679;-44
2023/07/11 08:28:41;;;;;;;4.78;4.32;;;;;;;32.19;39.33;95066.00;5111537;28;20252;-43
2023/07/11 08:31:09;;;;;;;7.57;4.00;;;;;;;32.15;39.28;95063.09;5107670;28;20288;-43
2023/07/11 08:33:36;;;;;;;4.82;4.40;;;;;;;32.10;39.12;95060.44;5111240;28;20571;-44
2023/07/11 08:36:03;;;;;;;6.72;4.25;;;;;;;32.12;39.79;95054.88;5108640;28;20675;-44
2023/07/11 08:38:30;;;;;;;9.88;4.20;;;;;;;32.17;39.94;95055.69;5111495;28;20189;-44
2023/07/11 08:40:57;;;;;;;6.90;4.30;;;;;;;32.13;40.40;95052.00;5110084;28;20614;-45
2023/07/11 08:43:29;;;;;;;4.57;4.20;;;;;;;32.32;40.23;95057.53;5092832;28;20197;-46
2023/07/11 08:46:05;;;;;;;6.93;5.05;;;;;;;32.48;40.41;95058.38;5108868;28;20185;-45
2023/07/11 08:48:41;;;;;;;7.78;4.57;;;;;;;32.61;38.66;95057.03;5108449;28;20625;-44
2023/07/11 08:51:20;;;;;;;5.47;4.95;;;;;;;32.62;39.02;95053.31;5106015;28;20192;-47
2023/07/11 08:53:52;;;;;;;5.05;4.55;;;;;;;32.62;39.41;95056.75;5111518;28;20648;-49
2023/07/11 08:56:28;;;;;;;5.72;4.35;;;;;;;32.66;38.97;95060.47;5110884;28;20199;-44
2023/07/11 08:59:00;;;;;;;9.45;4.30;;;;;;;32.56;38.47;95057.84;5110466;28;20184;-43
2023/07/11 09:01:49;;;;;;;5.97;4.82;;;;;;;32.53;38.66;95054.91;5104615;28;20213;-43
2023/07/11 09:04:21;;;;;;;4.72;4.32;;;;;;;32.67;37.98;95055.94;5110594;28;20564;-44
2023/07/11 09:06:53;;;;;;;4.97;4.07;;;;;;;32.73;38.78;95046.94;5107759;28;20203;-43
2023/07/11 09:09:20;;;;;;;5.45;4.72;;;;;;;32.82;38.20;95047.19;5106869;28;20379;-44
2023/07/11 09:11:52;;;;;;;5.15;3.95;;;;;;;32.81;38.67;95050.88;5110501;28;20185;-44
2023/07/11 09:14:34;;;;;;;4.85;4.43;;;;;;;32.91;38.34;95043.75;5111281;28;20207;-43
2023/07/11 09:17:08;;;;;;;6.97;4.22;;;;;;;33.10;37.99;95043.94;5109515;28;20208;-43
2023/07/11 09:19:53;;;;;;;7.57;4.40;;;;;;;33.11;38.07;95045.50;5110940;28;20710;-43
2023/07/11 09:22:32;;;;;;;5.22;4.45;;;;;;;33.08;38.85;95050.59;5109478;28;20208;-43
2023/07/11 09:25:07;;;;;;;6.57;4.32;;;;;;;33.01;38.96;95048.22;5108368;28;20193;-45
2023/07/11 09:27:35;;;;;;;7.07;4.20;;;;;;;32.93;39.33;95046.13;5109349;28;20664;-44
2023/07/11 09:30:14;;;;;;;7.13;4.40;;;;;;;32.87;39.22;95045.31;5110934;28;20228;-44
2023/07/11 09:32:42;;;;;;;7.03;4.78;;;;;;;32.74;38.16;95035.28;5109828;28;20605;-44
2023/07/11 09:35:27;;;;;;;5.20;4.60;;;;;;;32.67;39.24;95045.34;5111344;28;20201;-52
2023/07/11 09:38:01;;;;;;;5.13;4.70;;;;;;;32.60;39.83;95040.34;5108468;28;20193;-43
2023/07/11 09:40:33;;;;;;;5.93;4.82;;;;;;;32.64;40.28;95025.50;5106467;28;20218;-43
2023/07/11 09:43:01;;;;;;;7.80;4.30;;;;;;;32.79;39.63;95040.56;5109551;28;20203;-44
2023/07/11 09:45:34;;;;;;;6.28;4.28;;;;;;;32.74;39.94;95035.28;5110277;28;20193;-44
2023/07/11 09:48:09;;;;;;;8.10;4.47;;;;;;;32.74;40.27;95037.94;5110271;28;20649;-43
2023/07/11 09:50:45;;;;;;;5.32;4.57;;;;;;;32.78;40.58;95024.94;5109208;28;20268;-44
2023/07/11 09:53:16;;;;;;;5.22;4.60;;;;;;;32.82;40.07;95026.78;5107924;28;20204;-43
2023/07/11 09:55:43;;;;;;;5.18;4.70;;;;;;;32.75;40.42;95031.56;5105060;28;20967;-43
2023/07/11 09:58:15;;;;;;;4.65;4.25;;;;;;;32.79;40.71;95029.97;5107975;28;20246;-43
2023/07/11 10:00:45;;;;;;;7.07;4.68;;;;;;;32.88;40.81;95023.03;5107878;28;20248;-44
2023/07/11 10:03:16;;;;;;;8.25;4.53;;;;;;;32.86;40.86;95025.19;5109568;28;20217;-44
2023/07/11 10:05:48;;;;;;;8.63;4.25;;;;;;;32.71;40.93;94990.78;5109452;28;20642;-44
2023/07/11 10:08:18;;;;;;;5.25;4.70;;;;;;;32.80;41.31;95022.81;5109975;28;20209;-43
2023/07/11 10:10:47;;;;;;;5.18;4.68;;;;;;;32.74;41.02;95016.75;5109928;28;20886;-43
2023/07/11 10:13:16;;;;;;;4.90;4.50;;;;;;;32.62;40.41;95019.66;5107975;28;20238;-43
2023/07/11 10:15:42;;;;;;;8.48;4.97;;;;;;;32.32;41.21;95006.44;5110097;28;20224;-44
2023/07/11 10:18:18;;;;;;;7.13;4.35;;;;;;;32.27;42.09;95015.19;5110401;28;20201;-44
2023/07/11 10:20:49;;;;;;;11.52;5.13;;;;;;;32.23;42.57;95014.13;5107127;28;20277;-43
2023/07/11 10:23:21;;;;;;;7.47;5.20;;;;;;;32.30;42.28;95013.84;5110064;28;20185;-43
2023/07/11 10:25:52;;;;;;;6.30;4.50;;;;;;;32.34;42.43;95013.09;5108525;28;20391;-43
2023/07/11 10:28:27;;;;;;;7.45;4.78;;;;;;;32.44;42.63;95015.72;5109658;28;20248;-43
2023/07/11 10:30:56;;;;;;;6.72;4.97;;;;;;;32.38;42.11;94989.50;5107692;28;20200;-43
2023/07/11 10:33:27;;;;;;;4.85;4.35;;;;;;;32.54;41.69;95011.47;5110110;28;20189;-45
2023/07/11 10:36:05;;;;;;;7.47;4.40;;;;;;;32.46;42.15;95013.59;5109725;28;20193;-44
2023/07/11 10:38:48;;;;;;;6.82;4.80;;;;;;;32.48;42.58;95016.00;5106919;28;20197;-43
2023/07/11 10:41:20;;;;;;;10.63;4.70;;;;;;;32.59;42.56;95014.13;5108287;28;20216;-44
2023/07/11 10:43:51;;;;;;;5.97;4.07;;;;;;;32.64;41.95;95001.66;5107731;28;20189;-42
2023/07/11 10:46:30;;;;;;;5.68;4.15;;;;;;;32.64;41.32;94999.03;5109398;28;20193;-43
2023/07/11 10:49:06;;;;;;;6.28;4.70;;;;;;;32.56;42.22;94999.56;5105774;28;20773;-43
2023/07/11 10:51:40;;;;;;;8.35;5.05;;;;;;;32.48;42.96;94984.22;5107071;28;20222;-43
2023/07/11 10:54:20;;;;;;;4.75;4.15;;;;;;;32.60;42.06;94992.66;5107417;28;20254;-42
2023/07/11 10:56:51;;;;;;;6.13;4.53;;;;;;;32.58;42.83;94994.00;5107032;28;20197;-43
2023/07/11 10:59:22;;;;;;;4.65;4.25;;;;;;;32.67;41.27;94987.88;5104962;28;20192;-44
2023/07/11 11:02:00;;;;;;;11.43;4.85;;;;;;;32.62;42.27;94979.16;5106553;28;20560;-43
2023/07/11 11:04:49;;;;;;;5.53;5.03;;;;;;;32.73;42.50;94983.38;5104026;28;20196;-44
2023/07/11 11:07:27;;;;;;;5.05;4.65;;;;;;;32.89;41.49;94981.44;5105432;28;20250;-43
2023/07/11 11:10:04;;;;;;;5.50;4.18;;;;;;;33.02;41.27;94975.59;5104357;28;20197;-44
2023/07/11 11:12:38;;;;;;;5.85;4.57;;;;;;;33.08;39.97;94977.16;5103488;28;20185;-43
2023/07/11 11:15:22;;;;;;;7.05;4.47;;;;;;;32.97;40.33;94965.00;5105267;28;20224;-43
2023/07/11 11:17:58;;;;;;;6.57;4.90;;;;;;;33.07;39.19;94972.91;5104358;28;20204;-43
2023/07/11 11:20:29;;;;;;;7.22;4.20;;;;;;;32.95;39.32;94973.25;5106301;28;20307;-43
2023/07/11 11:23:25;;;;;;;5.03;4.43;;;;;;;33.03;38.92;94981.69;5101645;28;20209;-43
2023/07/11 11:26:10;;;;;;;6.05;4.40;;;;;;;32.80;38.72;94956.56;5103671;28;20200;-43
2023/07/11 11:28:49;;;;;;;7.88;5.13;;;;;;;32.63;38.79;94972.78;5106244;28;20229;-43
2023/07/11 11:31:22;;;;;;;9.63;5.07;;;;;;;32.41;40.15;94957.22;5104864;28;20621;-44
2023/07/11 11:33:59;;;;;;;6.20;4.22;;;;;;;32.42;40.09;94972.81;5101086;28;20198;-43
2023/07/11 11:36:30;;;;;;;5.30;4.80;;;;;;;32.41;41.50;94970.47;5108283;28;20184;-44
2023/07/11 11:39:19;;;;;;;6.90;4.75;;;;;;;32.36;41.74;94962.50;5108689;28;20734;-43
2023/07/11 11:41:48;;;;;;;6.00;4.75;;;;;;;32.18;42.39;94967.28;5108571;28;20777;-43